Terminal Aerodrome Forecast
Issued by NWS

Home | Current Version | Previous Version | Text Only | Print | Product List | Glossary Off
Versions: 1 2 3 4 5 6 7 8 9 10 11 12

000
FTUS45 KGGW 101127
TAFOLF
TAF
KOLF 101127Z 1012/1112 26009KT P6SM SCT160
     FM110000 29013KT P6SM SKC WS020/30040KT
     FM110600 29017KT P6SM SCT130
     FM110900 27013KT P6SM BKN050=

USA.gov is the U.S. government's official web portal to all federal, state and local government web resources and services.